Terminal Aerodrome Forecast
Issued by NWS Lake Charles, LA

Current Version | Previous Version | Text Only | Print | Product List | Glossary On
Versions: 1 2 3 4 5 6 7 8 9 10 11 12 13 14 15 16 17 18 19 20 21 22 23 24 25 26 27
000
FTUS44 KLCH 012300
TAFAEX
TAF
KAEX 012331Z 0200/0224 15007KT P6SM VCTS SCT035CB BKN250
     FM020200 15004KT P6SM FEW025 SCT250
     FM020900 00000KT P6SM BKN025
     FM021400 17006KT P6SM BKN035
     FM021900 17009KT P6SM VCSH SCT030 BKN050=

USA.gov is the U.S. government's official web portal to all federal, state and local government web resources and services.